Terminal Aerodrome Forecast
Issued by NWS

Home | Current Version | Previous Version | Text Only | Print | Product List | Glossary On
Versions: 1 2 3 4 5 6 7 8 9 10 11 12 13
000
FTUS45 KGJT 260520
TAFVEL
TAF
KVEL 260520Z 2606/2706 27007KT P6SM SCT140 BKN250
     FM261400 15003KT P6SM SCT140 SCT250
     FM261900 23008KT P6SM SCT140 SCT200
     FM270100 30005KT P6SM SCT120 BKN200=

USA.gov is the U.S. government's official web portal to all federal, state and local government web resources and services.